sensor_id;sensor_type;location;lat;lon;timestamp;P1;durP1;ratioP1;P2;durP2;ratioP2
15764;SDS011;7983;50.744;7.086;2023-12-20T00:00:19;1.25;;;1.00;;
15764;SDS011;7983;50.744;7.086;2023-12-20T00:02:47;2.25;;;1.00;;
15764;SDS011;7983;50.744;7.086;2023-12-20T00:05:13;1.35;;;1.05;;
15764;SDS011;7983;50.744;7.086;2023-12-20T00:07:39;1.02;;;0.93;;
15764;SDS011;7983;50.744;7.086;2023-12-20T00:10:07;1.75;;;1.20;;
15764;SDS011;7983;50.744;7.086;2023-12-20T00:12:33;0.93;;;0.82;;
15764;SDS011;7983;50.744;7.086;2023-12-20T00:14:59;1.25;;;1.10;;
15764;SDS011;7983;50.744;7.086;2023-12-20T00:17:27;1.27;;;1.02;;
15764;SDS011;7983;50.744;7.086;2023-12-20T00:19:55;1.15;;;0.90;;
15764;SDS011;7983;50.744;7.086;2023-12-20T00:22:20;1.10;;;0.93;;
15764;SDS011;7983;50.744;7.086;2023-12-20T00:24:46;0.90;;;0.80;;
15764;SDS011;7983;50.744;7.086;2023-12-20T00:27:11;1.05;;;0.93;;
15764;SDS011;7983;50.744;7.086;2023-12-20T00:29:37;1.70;;;1.00;;
15764;SDS011;7983;50.744;7.086;2023-12-20T00:32:03;1.30;;;1.10;;
15764;SDS011;7983;50.744;7.086;2023-12-20T00:34:29;0.80;;;0.70;;
15764;SDS011;7983;50.744;7.086;2023-12-20T00:36:55;1.35;;;0.90;;
15764;SDS011;7983;50.744;7.086;2023-12-20T00:39:22;1.02;;;0.93;;
15764;SDS011;7983;50.744;7.086;2023-12-20T00:41:49;1.00;;;0.80;;
15764;SDS011;7983;50.744;7.086;2023-12-20T00:44:14;1.00;;;0.90;;
15764;SDS011;7983;50.744;7.086;2023-12-20T00:46:43;1.00;;;0.90;;
15764;SDS011;7983;50.744;7.086;2023-12-20T00:49:09;1.33;;;0.90;;
15764;SDS011;7983;50.744;7.086;2023-12-20T00:51:34;1.00;;;0.90;;
15764;SDS011;7983;50.744;7.086;2023-12-20T00:54:00;1.00;;;0.88;;
15764;SDS011;7983;50.744;7.086;2023-12-20T00:56:26;1.00;;;0.82;;
15764;SDS011;7983;50.744;7.086;2023-12-20T00:58:51;1.10;;;0.82;;
15764;SDS011;7983;50.744;7.086;2023-12-20T01:01:19;0.82;;;0.82;;
15764;SDS011;7983;50.744;7.086;2023-12-20T01:03:44;0.82;;;0.70;;
15764;SDS011;7983;50.744;7.086;2023-12-20T01:06:13;0.70;;;0.70;;
15764;SDS011;7983;50.744;7.086;2023-12-20T01:08:38;1.15;;;0.88;;
15764;SDS011;7983;50.744;7.086;2023-12-20T01:11:04;0.98;;;0.88;;
15764;SDS011;7983;50.744;7.086;2023-12-20T01:13:30;0.75;;;0.73;;
15764;SDS011;7983;50.744;7.086;2023-12-20T01:15:56;1.20;;;1.10;;
15764;SDS011;7983;50.744;7.086;2023-12-20T01:18:24;1.42;;;1.10;;
15764;SDS011;7983;50.744;7.086;2023-12-20T01:20:49;1.38;;;1.20;;
15764;SDS011;7983;50.744;7.086;2023-12-20T01:23:20;1.98;;;1.33;;
15764;SDS011;7983;50.744;7.086;2023-12-20T01:25:45;1.95;;;1.60;;
15764;SDS011;7983;50.744;7.086;2023-12-20T01:28:11;1.98;;;1.65;;
15764;SDS011;7983;50.744;7.086;2023-12-20T01:30:38;2.33;;;1.77;;
15764;SDS011;7983;50.744;7.086;2023-12-20T01:33:04;2.30;;;2.10;;
15764;SDS011;7983;50.744;7.086;2023-12-20T01:35:30;2.80;;;2.28;;
15764;SDS011;7983;50.744;7.086;2023-12-20T01:37:56;3.95;;;2.63;;
15764;SDS011;7983;50.744;7.086;2023-12-20T01:40:22;2.75;;;2.50;;
15764;SDS011;7983;50.744;7.086;2023-12-20T01:42:48;3.45;;;2.92;;
15764;SDS011;7983;50.744;7.086;2023-12-20T01:45:26;4.25;;;3.50;;
15764;SDS011;7983;50.744;7.086;2023-12-20T01:47:54;6.22;;;3.90;;
15764;SDS011;7983;50.744;7.086;2023-12-20T01:50:22;4.85;;;4.20;;
15764;SDS011;7983;50.744;7.086;2023-12-20T01:52:48;6.07;;;4.30;;
15764;SDS011;7983;50.744;7.086;2023-12-20T01:55:17;5.55;;;4.28;;
15764;SDS011;7983;50.744;7.086;2023-12-20T01:57:44;5.53;;;4.18;;
15764;SDS011;7983;50.744;7.086;2023-12-20T02:00:12;6.07;;;4.85;;
15764;SDS011;7983;50.744;7.086;2023-12-20T02:02:39;5.28;;;4.25;;
15764;SDS011;7983;50.744;7.086;2023-12-20T02:05:06;6.50;;;4.38;;
15764;SDS011;7983;50.744;7.086;2023-12-20T02:07:33;6.63;;;4.80;;
15764;SDS011;7983;50.744;7.086;2023-12-20T02:10:03;6.25;;;4.22;;
15764;SDS011;7983;50.744;7.086;2023-12-20T02:12:31;5.93;;;3.97;;
15764;SDS011;7983;50.744;7.086;2023-12-20T02:14:57;5.95;;;4.68;;
15764;SDS011;7983;50.744;7.086;2023-12-20T02:17:25;5.90;;;4.82;;
15764;SDS011;7983;50.744;7.086;2023-12-20T02:19:54;7.68;;;5.00;;
15764;SDS011;7983;50.744;7.086;2023-12-20T02:22:24;6.90;;;5.47;;
15764;SDS011;7983;50.744;7.086;2023-12-20T02:24:50;8.68;;;6.15;;
15764;SDS011;7983;50.744;7.086;2023-12-20T02:27:17;6.90;;;5.32;;
15764;SDS011;7983;50.744;7.086;2023-12-20T02:29:44;9.13;;;5.25;;
15764;SDS011;7983;50.744;7.086;2023-12-20T02:32:17;7.80;;;5.32;;
15764;SDS011;7983;50.744;7.086;2023-12-20T02:34:43;6.83;;;4.07;;
15764;SDS011;7983;50.744;7.086;2023-12-20T02:37:11;5.60;;;3.40;;
15764;SDS011;7983;50.744;7.086;2023-12-20T02:39:37;4.50;;;2.63;;
15764;SDS011;7983;50.744;7.086;2023-12-20T02:42:03;7.00;;;2.97;;
15764;SDS011;7983;50.744;7.086;2023-12-20T02:44:28;5.97;;;2.50;;
15764;SDS011;7983;50.744;7.086;2023-12-20T02:46:56;2.37;;;1.97;;
15764;SDS011;7983;50.744;7.086;2023-12-20T02:49:22;3.93;;;2.13;;
15764;SDS011;7983;50.744;7.086;2023-12-20T02:51:47;4.40;;;1.97;;
15764;SDS011;7983;50.744;7.086;2023-12-20T02:54:13;5.97;;;1.77;;
15764;SDS011;7983;50.744;7.086;2023-12-20T02:56:41;4.53;;;1.80;;
15764;SDS011;7983;50.744;7.086;2023-12-20T02:59:09;2.73;;;1.60;;
15764;SDS011;7983;50.744;7.086;2023-12-20T03:01:35;5.90;;;1.80;;
15764;SDS011;7983;50.744;7.086;2023-12-20T03:04:06;3.67;;;1.40;;
15764;SDS011;7983;50.744;7.086;2023-12-20T03:06:36;4.77;;;1.80;;
15764;SDS011;7983;50.744;7.086;2023-12-20T03:09:04;2.90;;;1.60;;
15764;SDS011;7983;50.744;7.086;2023-12-20T03:11:30;2.70;;;1.23;;
15764;SDS011;7983;50.744;7.086;2023-12-20T03:13:58;3.70;;;1.40;;
15764;SDS011;7983;50.744;7.086;2023-12-20T03:16:24;5.17;;;1.53;;
15764;SDS011;7983;50.744;7.086;2023-12-20T03:18:50;3.17;;;1.37;;
15764;SDS011;7983;50.744;7.086;2023-12-20T03:21:16;4.63;;;1.30;;
15764;SDS011;7983;50.744;7.086;2023-12-20T03:23:41;3.23;;;1.30;;
15764;SDS011;7983;50.744;7.086;2023-12-20T03:26:07;3.07;;;1.20;;
15764;SDS011;7983;50.744;7.086;2023-12-20T03:28:36;5.23;;;1.30;;
15764;SDS011;7983;50.744;7.086;2023-12-20T03:31:01;5.83;;;1.60;;
15764;SDS011;7983;50.744;7.086;2023-12-20T03:33:30;4.73;;;1.40;;
15764;SDS011;7983;50.744;7.086;2023-12-20T03:35:55;6.40;;;1.83;;
15764;SDS011;7983;50.744;7.086;2023-12-20T03:38:26;3.63;;;1.50;;
15764;SDS011;7983;50.744;7.086;2023-12-20T03:40:53;4.70;;;1.80;;
15764;SDS011;7983;50.744;7.086;2023-12-20T03:43:19;5.57;;;1.63;;
15764;SDS011;7983;50.744;7.086;2023-12-20T03:45:45;6.40;;;1.97;;
15764;SDS011;7983;50.744;7.086;2023-12-20T03:48:10;5.97;;;1.70;;
15764;SDS011;7983;50.744;7.086;2023-12-20T03:50:36;6.00;;;2.00;;
15764;SDS011;7983;50.744;7.086;2023-12-20T03:53:02;4.17;;;1.60;;
15764;SDS011;7983;50.744;7.086;2023-12-20T03:55:28;4.93;;;1.33;;
15764;SDS011;7983;50.744;7.086;2023-12-20T03:57:54;4.57;;;1.90;;
15764;SDS011;7983;50.744;7.086;2023-12-20T04:00:20;5.83;;;1.70;;
15764;SDS011;7983;50.744;7.086;2023-12-20T04:02:47;4.43;;;1.80;;
15764;SDS011;7983;50.744;7.086;2023-12-20T04:05:13;5.07;;;1.60;;
15764;SDS011;7983;50.744;7.086;2023-12-20T04:07:39;5.07;;;1.73;;
15764;SDS011;7983;50.744;7.086;2023-12-20T04:10:05;4.53;;;1.90;;
15764;SDS011;7983;50.744;7.086;2023-12-20T04:12:30;4.90;;;1.60;;
15764;SDS011;7983;50.744;7.086;2023-12-20T04:14:57;6.20;;;2.13;;
15764;SDS011;7983;50.744;7.086;2023-12-20T04:17:22;3.60;;;1.30;;
15764;SDS011;7983;50.744;7.086;2023-12-20T04:19:48;6.33;;;2.03;;
15764;SDS011;7983;50.744;7.086;2023-12-20T04:22:17;4.27;;;1.70;;
15764;SDS011;7983;50.744;7.086;2023-12-20T04:24:47;4.47;;;1.97;;
15764;SDS011;7983;50.744;7.086;2023-12-20T04:27:15;5.07;;;1.77;;
15764;SDS011;7983;50.744;7.086;2023-12-20T04:29:43;3.97;;;1.70;;
15764;SDS011;7983;50.744;7.086;2023-12-20T04:32:08;7.83;;;1.63;;
15764;SDS011;7983;50.744;7.086;2023-12-20T04:34:34;8.03;;;1.80;;
15764;SDS011;7983;50.744;7.086;2023-12-20T04:37:00;3.93;;;1.90;;
15764;SDS011;7983;50.744;7.086;2023-12-20T04:39:26;3.97;;;1.90;;
15764;SDS011;7983;50.744;7.086;2023-12-20T04:41:52;5.23;;;1.90;;
15764;SDS011;7983;50.744;7.086;2023-12-20T04:44:18;3.20;;;1.70;;
15764;SDS011;7983;50.744;7.086;2023-12-20T04:46:46;4.10;;;1.70;;
15764;SDS011;7983;50.744;7.086;2023-12-20T04:49:12;6.07;;;1.80;;
15764;SDS011;7983;50.744;7.086;2023-12-20T04:51:37;5.53;;;1.83;;
15764;SDS011;7983;50.744;7.086;2023-12-20T04:54:03;7.20;;;1.73;;
15764;SDS011;7983;50.744;7.086;2023-12-20T04:56:28;7.23;;;2.43;;
15764;SDS011;7983;50.744;7.086;2023-12-20T04:58:54;6.23;;;1.97;;
15764;SDS011;7983;50.744;7.086;2023-12-20T05:01:20;4.30;;;1.80;;
15764;SDS011;7983;50.744;7.086;2023-12-20T05:03:47;5.73;;;2.67;;
15764;SDS011;7983;50.744;7.086;2023-12-20T05:06:13;6.47;;;2.10;;
15764;SDS011;7983;50.744;7.086;2023-12-20T05:08:39;7.90;;;2.67;;
15764;SDS011;7983;50.744;7.086;2023-12-20T05:11:08;5.77;;;2.03;;
15764;SDS011;7983;50.744;7.086;2023-12-20T05:13:34;4.87;;;2.10;;
15764;SDS011;7983;50.744;7.086;2023-12-20T05:15:59;6.17;;;2.20;;
15764;SDS011;7983;50.744;7.086;2023-12-20T05:18:25;7.23;;;2.10;;
15764;SDS011;7983;50.744;7.086;2023-12-20T05:20:53;5.13;;;2.00;;
15764;SDS011;7983;50.744;7.086;2023-12-20T05:23:21;3.63;;;1.70;;
15764;SDS011;7983;50.744;7.086;2023-12-20T05:25:46;3.83;;;1.80;;
15764;SDS011;7983;50.744;7.086;2023-12-20T05:28:15;4.67;;;1.90;;
15764;SDS011;7983;50.744;7.086;2023-12-20T05:30:40;8.53;;;2.60;;
15764;SDS011;7983;50.744;7.086;2023-12-20T05:33:06;4.70;;;2.20;;
15764;SDS011;7983;50.744;7.086;2023-12-20T05:35:34;8.33;;;2.50;;
15764;SDS011;7983;50.744;7.086;2023-12-20T05:37:59;6.27;;;2.10;;
15764;SDS011;7983;50.744;7.086;2023-12-20T05:40:25;7.13;;;2.33;;
15764;SDS011;7983;50.744;7.086;2023-12-20T05:42:51;7.23;;;2.67;;
15764;SDS011;7983;50.744;7.086;2023-12-20T05:45:19;5.93;;;2.20;;
15764;SDS011;7983;50.744;7.086;2023-12-20T05:47:45;8.70;;;2.20;;
15764;SDS011;7983;50.744;7.086;2023-12-20T05:50:10;6.20;;;3.07;;
15764;SDS011;7983;50.744;7.086;2023-12-20T05:52:38;5.63;;;2.40;;
15764;SDS011;7983;50.744;7.086;2023-12-20T05:55:09;5.40;;;2.20;;
15764;SDS011;7983;50.744;7.086;2023-12-20T05:57:54;6.00;;;2.23;;
15764;SDS011;7983;50.744;7.086;2023-12-20T06:00:19;5.63;;;2.37;;
15764;SDS011;7983;50.744;7.086;2023-12-20T06:02:45;5.17;;;2.23;;
15764;SDS011;7983;50.744;7.086;2023-12-20T06:05:11;7.33;;;2.53;;
15764;SDS011;7983;50.744;7.086;2023-12-20T06:07:37;5.10;;;2.40;;
15764;SDS011;7983;50.744;7.086;2023-12-20T06:10:02;6.13;;;2.23;;
15764;SDS011;7983;50.744;7.086;2023-12-20T06:12:28;4.80;;;2.20;;
15764;SDS011;7983;50.744;7.086;2023-12-20T06:14:57;5.97;;;2.13;;
15764;SDS011;7983;50.744;7.086;2023-12-20T06:17:22;5.67;;;2.03;;
15764;SDS011;7983;50.744;7.086;2023-12-20T06:19:48;5.17;;;2.23;;
15764;SDS011;7983;50.744;7.086;2023-12-20T06:22:16;4.73;;;2.10;;
15764;SDS011;7983;50.744;7.086;2023-12-20T06:24:41;6.07;;;2.23;;
15764;SDS011;7983;50.744;7.086;2023-12-20T06:27:07;8.30;;;2.20;;
15764;SDS011;7983;50.744;7.086;2023-12-20T06:29:32;5.47;;;2.23;;
15764;SDS011;7983;50.744;7.086;2023-12-20T06:31:59;5.97;;;2.20;;
15764;SDS011;7983;50.744;7.086;2023-12-20T06:34:27;4.77;;;2.03;;
15764;SDS011;7983;50.744;7.086;2023-12-20T06:36:53;5.87;;;2.43;;
15764;SDS011;7983;50.744;7.086;2023-12-20T06:39:20;3.80;;;2.20;;
15764;SDS011;7983;50.744;7.086;2023-12-20T06:41:49;7.00;;;2.50;;
15764;SDS011;7983;50.744;7.086;2023-12-20T06:44:16;6.70;;;2.20;;
15764;SDS011;7983;50.744;7.086;2023-12-20T06:46:42;7.10;;;2.33;;
15764;SDS011;7983;50.744;7.086;2023-12-20T06:49:08;6.17;;;2.07;;
15764;SDS011;7983;50.744;7.086;2023-12-20T06:51:37;6.50;;;2.33;;
15764;SDS011;7983;50.744;7.086;2023-12-20T06:54:02;7.30;;;2.20;;
15764;SDS011;7983;50.744;7.086;2023-12-20T06:56:28;7.40;;;2.63;;
15764;SDS011;7983;50.744;7.086;2023-12-20T06:58:54;7.70;;;2.20;;
15764;SDS011;7983;50.744;7.086;2023-12-20T07:01:19;6.37;;;2.37;;
15764;SDS011;7983;50.744;7.086;2023-12-20T07:03:45;6.77;;;2.47;;
15764;SDS011;7983;50.744;7.086;2023-12-20T07:06:11;4.10;;;2.03;;
15764;SDS011;7983;50.744;7.086;2023-12-20T07:08:40;4.70;;;2.20;;
15764;SDS011;7983;50.744;7.086;2023-12-20T07:11:06;6.10;;;2.30;;
15764;SDS011;7983;50.744;7.086;2023-12-20T07:13:31;6.77;;;2.67;;
15764;SDS011;7983;50.744;7.086;2023-12-20T07:15:57;5.10;;;2.20;;
15764;SDS011;7983;50.744;7.086;2023-12-20T07:18:23;4.73;;;2.13;;
15764;SDS011;7983;50.744;7.086;2023-12-20T07:20:51;7.63;;;2.80;;
15764;SDS011;7983;50.744;7.086;2023-12-20T07:23:17;6.20;;;2.10;;
15764;SDS011;7983;50.744;7.086;2023-12-20T07:25:45;9.75;;;2.35;;
15764;SDS011;7983;50.744;7.086;2023-12-20T07:28:10;7.27;;;2.57;;
15764;SDS011;7983;50.744;7.086;2023-12-20T07:30:36;8.37;;;2.20;;
15764;SDS011;7983;50.744;7.086;2023-12-20T07:33:04;6.10;;;2.20;;
15764;SDS011;7983;50.744;7.086;2023-12-20T07:35:33;8.60;;;2.63;;
15764;SDS011;7983;50.744;7.086;2023-12-20T07:37:59;7.07;;;2.30;;
15764;SDS011;7983;50.744;7.086;2023-12-20T07:40:25;11.10;;;2.90;;
15764;SDS011;7983;50.744;7.086;2023-12-20T07:42:50;7.27;;;2.30;;
15764;SDS011;7983;50.744;7.086;2023-12-20T07:45:16;5.83;;;2.20;;
15764;SDS011;7983;50.744;7.086;2023-12-20T07:47:42;8.17;;;3.20;;
15764;SDS011;7983;50.744;7.086;2023-12-20T07:50:09;6.00;;;2.27;;
15764;SDS011;7983;50.744;7.086;2023-12-20T07:52:35;9.63;;;2.70;;
15764;SDS011;7983;50.744;7.086;2023-12-20T07:55:01;5.60;;;2.10;;
15764;SDS011;7983;50.744;7.086;2023-12-20T07:57:30;8.00;;;2.50;;
15764;SDS011;7983;50.744;7.086;2023-12-20T07:59:55;6.40;;;2.20;;
15764;SDS011;7983;50.744;7.086;2023-12-20T08:02:23;6.57;;;2.33;;
15764;SDS011;7983;50.744;7.086;2023-12-20T08:04:49;8.67;;;2.20;;
15764;SDS011;7983;50.744;7.086;2023-12-20T08:07:16;6.40;;;2.03;;
15764;SDS011;7983;50.744;7.086;2023-12-20T08:09:42;8.57;;;2.20;;
15764;SDS011;7983;50.744;7.086;2023-12-20T08:12:08;8.30;;;3.03;;
15764;SDS011;7983;50.744;7.086;2023-12-20T08:14:36;7.63;;;2.37;;
15764;SDS011;7983;50.744;7.086;2023-12-20T08:17:06;7.23;;;2.43;;
15764;SDS011;7983;50.744;7.086;2023-12-20T08:19:37;7.57;;;2.20;;
15764;SDS011;7983;50.744;7.086;2023-12-20T08:22:05;7.97;;;2.50;;
15764;SDS011;7983;50.744;7.086;2023-12-20T08:24:30;9.48;;;2.42;;
15764;SDS011;7983;50.744;7.086;2023-12-20T08:26:56;6.23;;;2.30;;
15764;SDS011;7983;50.744;7.086;2023-12-20T08:29:22;6.47;;;2.37;;
15764;SDS011;7983;50.744;7.086;2023-12-20T08:31:51;7.10;;;2.50;;
15764;SDS011;7983;50.744;7.086;2023-12-20T08:34:19;7.13;;;2.50;;
15764;SDS011;7983;50.744;7.086;2023-12-20T08:36:47;6.30;;;2.50;;
15764;SDS011;7983;50.744;7.086;2023-12-20T08:39:12;8.73;;;2.40;;
15764;SDS011;7983;50.744;7.086;2023-12-20T08:41:38;9.07;;;2.78;;
15764;SDS011;7983;50.744;7.086;2023-12-20T08:44:06;7.03;;;2.30;;
15764;SDS011;7983;50.744;7.086;2023-12-20T08:46:31;6.50;;;2.17;;
15764;SDS011;7983;50.744;7.086;2023-12-20T08:48:57;5.60;;;2.20;;
15764;SDS011;7983;50.744;7.086;2023-12-20T08:51:22;6.97;;;2.40;;
15764;SDS011;7983;50.744;7.086;2023-12-20T08:53:50;7.30;;;2.63;;
15764;SDS011;7983;50.744;7.086;2023-12-20T08:56:16;10.03;;;2.47;;
15764;SDS011;7983;50.744;7.086;2023-12-20T08:58:43;7.97;;;2.30;;
15764;SDS011;7983;50.744;7.086;2023-12-20T09:01:08;6.00;;;2.33;;
15764;SDS011;7983;50.744;7.086;2023-12-20T09:03:36;7.03;;;2.17;;
15764;SDS011;7983;50.744;7.086;2023-12-20T09:06:02;4.90;;;2.15;;
15764;SDS011;7983;50.744;7.086;2023-12-20T09:08:28;7.65;;;2.05;;
15764;SDS011;7983;50.744;7.086;2023-12-20T09:10:54;5.70;;;2.08;;
15764;SDS011;7983;50.744;7.086;2023-12-20T09:13:19;6.85;;;2.10;;
15764;SDS011;7983;50.744;7.086;2023-12-20T09:15:47;7.53;;;2.50;;
15764;SDS011;7983;50.744;7.086;2023-12-20T09:18:14;6.07;;;1.90;;
15764;SDS011;7983;50.744;7.086;2023-12-20T09:20:40;5.57;;;2.15;;
15764;SDS011;7983;50.744;7.086;2023-12-20T09:23:08;6.82;;;2.30;;
15764;SDS011;7983;50.744;7.086;2023-12-20T09:25:38;7.25;;;2.15;;
15764;SDS011;7983;50.744;7.086;2023-12-20T09:28:06;7.07;;;2.08;;
15764;SDS011;7983;50.744;7.086;2023-12-20T09:30:34;5.38;;;2.08;;
15764;SDS011;7983;50.744;7.086;2023-12-20T09:33:02;7.82;;;2.33;;
15764;SDS011;7983;50.744;7.086;2023-12-20T09:35:31;5.85;;;2.03;;
15764;SDS011;7983;50.744;7.086;2023-12-20T09:37:56;5.32;;;2.20;;
15764;SDS011;7983;50.744;7.086;2023-12-20T09:40:25;5.70;;;2.00;;
15764;SDS011;7983;50.744;7.086;2023-12-20T09:42:57;9.50;;;2.45;;
15764;SDS011;7983;50.744;7.086;2023-12-20T09:45:23;5.72;;;1.95;;
15764;SDS011;7983;50.744;7.086;2023-12-20T09:47:53;10.40;;;2.25;;
15764;SDS011;7983;50.744;7.086;2023-12-20T09:50:22;6.72;;;2.08;;
15764;SDS011;7983;50.744;7.086;2023-12-20T09:52:51;5.13;;;2.00;;
15764;SDS011;7983;50.744;7.086;2023-12-20T09:55:23;9.60;;;2.22;;
15764;SDS011;7983;50.744;7.086;2023-12-20T09:57:51;11.20;;;2.40;;
15764;SDS011;7983;50.744;7.086;2023-12-20T10:00:21;6.97;;;2.10;;
15764;SDS011;7983;50.744;7.086;2023-12-20T10:03:00;7.20;;;2.20;;
15764;SDS011;7983;50.744;7.086;2023-12-20T10:05:31;6.53;;;2.20;;
15764;SDS011;7983;50.744;7.086;2023-12-20T10:08:00;6.43;;;2.03;;
15764;SDS011;7983;50.744;7.086;2023-12-20T10:10:26;5.77;;;2.10;;
15764;SDS011;7983;50.744;7.086;2023-12-20T10:15:31;7.35;;;2.20;;
15764;SDS011;7983;50.744;7.086;2023-12-20T10:17:58;5.60;;;2.00;;
15764;SDS011;7983;50.744;7.086;2023-12-20T10:20:24;4.78;;;1.88;;
15764;SDS011;7983;50.744;7.086;2023-12-20T10:22:54;8.18;;;2.40;;
15764;SDS011;7983;50.744;7.086;2023-12-20T10:25:21;6.82;;;2.55;;
15764;SDS011;7983;50.744;7.086;2023-12-20T10:27:47;10.82;;;2.20;;
15764;SDS011;7983;50.744;7.086;2023-12-20T10:30:14;8.13;;;2.10;;
15764;SDS011;7983;50.744;7.086;2023-12-20T10:32:40;7.35;;;2.30;;
15764;SDS011;7983;50.744;7.086;2023-12-20T10:35:06;9.57;;;2.67;;
15764;SDS011;7983;50.744;7.086;2023-12-20T10:37:35;7.10;;;2.40;;
15764;SDS011;7983;50.744;7.086;2023-12-20T10:40:02;7.53;;;2.15;;
15764;SDS011;7983;50.744;7.086;2023-12-20T10:42:31;7.97;;;2.08;;
15764;SDS011;7983;50.744;7.086;2023-12-20T10:44:59;5.78;;;2.00;;
15764;SDS011;7983;50.744;7.086;2023-12-20T10:47:25;7.50;;;2.33;;
15764;SDS011;7983;50.744;7.086;2023-12-20T10:49:56;8.15;;;2.17;;
15764;SDS011;7983;50.744;7.086;2023-12-20T10:52:26;10.02;;;2.42;;
15764;SDS011;7983;50.744;7.086;2023-12-20T10:54:54;6.97;;;2.08;;
15764;SDS011;7983;50.744;7.086;2023-12-20T10:57:20;8.07;;;2.17;;
15764;SDS011;7983;50.744;7.086;2023-12-20T10:59:47;6.85;;;2.10;;
15764;SDS011;7983;50.744;7.086;2023-12-20T11:02:16;6.10;;;2.10;;
15764;SDS011;7983;50.744;7.086;2023-12-20T11:07:29;6.18;;;2.03;;
15764;SDS011;7983;50.744;7.086;2023-12-20T11:10:03;7.25;;;2.00;;
15764;SDS011;7983;50.744;7.086;2023-12-20T11:12:51;5.65;;;2.08;;
15764;SDS011;7983;50.744;7.086;2023-12-20T11:15:21;5.60;;;2.00;;
15764;SDS011;7983;50.744;7.086;2023-12-20T11:17:54;6.85;;;2.03;;
15764;SDS011;7983;50.744;7.086;2023-12-20T11:20:24;5.50;;;1.95;;
15764;SDS011;7983;50.744;7.086;2023-12-20T11:23:00;5.28;;;2.10;;
15764;SDS011;7983;50.744;7.086;2023-12-20T11:25:26;6.88;;;1.80;;
15764;SDS011;7983;50.744;7.086;2023-12-20T11:28:13;7.22;;;2.03;;
15764;SDS011;7983;50.744;7.086;2023-12-20T11:36:03;7.40;;;2.28;;
15764;SDS011;7983;50.744;7.086;2023-12-20T11:38:37;6.88;;;2.10;;
15764;SDS011;7983;50.744;7.086;2023-12-20T11:41:14;7.10;;;2.33;;
15764;SDS011;7983;50.744;7.086;2023-12-20T11:43:41;8.38;;;2.35;;
15764;SDS011;7983;50.744;7.086;2023-12-20T11:46:11;6.20;;;2.25;;
15764;SDS011;7983;50.744;7.086;2023-12-20T11:48:40;7.45;;;2.55;;
15764;SDS011;7983;50.744;7.086;2023-12-20T11:51:13;8.02;;;2.72;;
15764;SDS011;7983;50.744;7.086;2023-12-20T11:53:39;5.05;;;1.90;;
15764;SDS011;7983;50.744;7.086;2023-12-20T11:56:08;9.27;;;2.65;;
15764;SDS011;7983;50.744;7.086;2023-12-20T11:58:37;11.25;;;2.90;;
15764;SDS011;7983;50.744;7.086;2023-12-20T12:01:03;5.47;;;2.35;;
15764;SDS011;7983;50.744;7.086;2023-12-20T12:03:33;6.95;;;2.33;;
15764;SDS011;7983;50.744;7.086;2023-12-20T12:06:01;6.85;;;2.80;;
15764;SDS011;7983;50.744;7.086;2023-12-20T12:08:31;5.53;;;2.10;;
15764;SDS011;7983;50.744;7.086;2023-12-20T12:10:57;5.40;;;2.10;;
15764;SDS011;7983;50.744;7.086;2023-12-20T12:13:25;5.57;;;2.30;;
15764;SDS011;7983;50.744;7.086;2023-12-20T12:15:53;7.30;;;2.55;;
15764;SDS011;7983;50.744;7.086;2023-12-20T12:18:20;7.78;;;2.20;;
15764;SDS011;7983;50.744;7.086;2023-12-20T12:20:46;6.20;;;2.53;;
15764;SDS011;7983;50.744;7.086;2023-12-20T12:23:12;7.75;;;2.40;;
15764;SDS011;7983;50.744;7.086;2023-12-20T12:25:38;7.82;;;2.40;;
15764;SDS011;7983;50.744;7.086;2023-12-20T12:28:06;7.22;;;2.20;;
15764;SDS011;7983;50.744;7.086;2023-12-20T12:30:34;7.30;;;2.40;;
15764;SDS011;7983;50.744;7.086;2023-12-20T12:33:00;9.20;;;2.60;;
15764;SDS011;7983;50.744;7.086;2023-12-20T12:35:28;8.85;;;2.33;;
15764;SDS011;7983;50.744;7.086;2023-12-20T12:37:58;7.97;;;2.40;;
15764;SDS011;7983;50.744;7.086;2023-12-20T12:40:25;5.57;;;2.30;;
15764;SDS011;7983;50.744;7.086;2023-12-20T12:42:50;7.80;;;3.13;;
15764;SDS011;7983;50.744;7.086;2023-12-20T12:45:18;7.93;;;2.72;;
15764;SDS011;7983;50.744;7.086;2023-12-20T12:47:44;8.18;;;1.98;;
15764;SDS011;7983;50.744;7.086;2023-12-20T12:50:10;4.45;;;1.92;;
15764;SDS011;7983;50.744;7.086;2023-12-20T12:52:36;8.82;;;2.72;;
15764;SDS011;7983;50.744;7.086;2023-12-20T12:55:02;8.40;;;2.00;;
15764;SDS011;7983;50.744;7.086;2023-12-20T12:57:33;5.57;;;2.00;;
15764;SDS011;7983;50.744;7.086;2023-12-20T12:59:58;7.13;;;2.00;;
15764;SDS011;7983;50.744;7.086;2023-12-20T13:02:24;6.80;;;2.10;;
15764;SDS011;7983;50.744;7.086;2023-12-20T13:04:50;6.82;;;2.00;;
15764;SDS011;7983;50.744;7.086;2023-12-20T13:07:16;5.13;;;1.95;;
15764;SDS011;7983;50.744;7.086;2023-12-20T13:09:42;5.75;;;1.92;;
15764;SDS011;7983;50.744;7.086;2023-12-20T13:12:07;9.80;;;2.53;;
15764;SDS011;7983;50.744;7.086;2023-12-20T13:14:33;4.78;;;2.20;;
15764;SDS011;7983;50.744;7.086;2023-12-20T13:17:01;5.47;;;2.20;;
15764;SDS011;7983;50.744;7.086;2023-12-20T13:19:28;5.38;;;2.00;;
15764;SDS011;7983;50.744;7.086;2023-12-20T13:21:55;8.77;;;2.20;;
15764;SDS011;7983;50.744;7.086;2023-12-20T13:24:21;7.57;;;2.40;;
15764;SDS011;7983;50.744;7.086;2023-12-20T13:26:46;7.88;;;2.40;;
15764;SDS011;7983;50.744;7.086;2023-12-20T13:29:12;4.80;;;1.80;;
15764;SDS011;7983;50.744;7.086;2023-12-20T13:31:42;7.60;;;2.00;;
15764;SDS011;7983;50.744;7.086;2023-12-20T13:34:10;6.47;;;2.30;;
15764;SDS011;7983;50.744;7.086;2023-12-20T13:36:38;4.82;;;1.98;;
15764;SDS011;7983;50.744;7.086;2023-12-20T13:39:07;8.13;;;2.70;;
15764;SDS011;7983;50.744;7.086;2023-12-20T13:41:33;5.50;;;1.92;;
15764;SDS011;7983;50.744;7.086;2023-12-20T13:43:58;7.28;;;2.67;;
15764;SDS011;7983;50.744;7.086;2023-12-20T13:46:24;6.97;;;1.88;;
15764;SDS011;7983;50.744;7.086;2023-12-20T13:48:50;4.85;;;2.05;;
15764;SDS011;7983;50.744;7.086;2023-12-20T13:51:15;7.28;;;2.58;;
15764;SDS011;7983;50.744;7.086;2023-12-20T13:53:41;4.22;;;2.10;;
15764;SDS011;7983;50.744;7.086;2023-12-20T13:56:06;4.22;;;2.10;;
15764;SDS011;7983;50.744;7.086;2023-12-20T13:58:37;7.63;;;2.13;;
15764;SDS011;7983;50.744;7.086;2023-12-20T14:01:06;4.75;;;2.15;;
15764;SDS011;7983;50.744;7.086;2023-12-20T14:03:32;5.97;;;2.13;;
15764;SDS011;7983;50.744;7.086;2023-12-20T14:05:59;5.82;;;2.00;;
15764;SDS011;7983;50.744;7.086;2023-12-20T14:08:26;4.97;;;2.10;;
15764;SDS011;7983;50.744;7.086;2023-12-20T14:10:52;4.40;;;1.70;;
15764;SDS011;7983;50.744;7.086;2023-12-20T14:13:18;5.63;;;2.13;;
15764;SDS011;7983;50.744;7.086;2023-12-20T14:15:46;4.40;;;1.95;;
15764;SDS011;7983;50.744;7.086;2023-12-20T14:18:16;5.82;;;1.80;;
15764;SDS011;7983;50.744;7.086;2023-12-20T14:20:45;4.68;;;1.85;;
15764;SDS011;7983;50.744;7.086;2023-12-20T14:23:12;4.45;;;1.70;;
15764;SDS011;7983;50.744;7.086;2023-12-20T14:25:40;4.88;;;1.70;;
15764;SDS011;7983;50.744;7.086;2023-12-20T14:28:06;4.60;;;1.85;;
15764;SDS011;7983;50.744;7.086;2023-12-20T14:30:35;4.65;;;1.52;;
15764;SDS011;7983;50.744;7.086;2023-12-20T14:33:04;5.13;;;1.83;;
15764;SDS011;7983;50.744;7.086;2023-12-20T14:35:30;3.33;;;1.67;;
15764;SDS011;7983;50.744;7.086;2023-12-20T14:37:55;2.03;;;1.20;;
15764;SDS011;7983;50.744;7.086;2023-12-20T14:40:23;3.53;;;1.05;;
15764;SDS011;7983;50.744;7.086;2023-12-20T14:42:51;3.65;;;1.20;;
15764;SDS011;7983;50.744;7.086;2023-12-20T14:45:17;2.42;;;1.15;;
15764;SDS011;7983;50.744;7.086;2023-12-20T14:47:43;3.25;;;1.17;;
15764;SDS011;7983;50.744;7.086;2023-12-20T14:50:12;1.52;;;1.00;;
15764;SDS011;7983;50.744;7.086;2023-12-20T14:52:42;3.38;;;1.20;;
15764;SDS011;7983;50.744;7.086;2023-12-20T14:55:10;3.28;;;1.13;;
15764;SDS011;7983;50.744;7.086;2023-12-20T14:57:36;2.08;;;1.00;;
15764;SDS011;7983;50.744;7.086;2023-12-20T15:00:02;2.83;;;1.30;;
15764;SDS011;7983;50.744;7.086;2023-12-20T15:02:28;2.17;;;1.20;;
15764;SDS011;7983;50.744;7.086;2023-12-20T15:04:56;2.25;;;1.20;;
15764;SDS011;7983;50.744;7.086;2023-12-20T15:07:27;2.58;;;1.08;;
15764;SDS011;7983;50.744;7.086;2023-12-20T15:09:55;2.45;;;1.00;;